Time;durP1;ratioP1;P1;durP2;ratioP2;P2;SDS_P1;SDS_P2;PMS_P1;PMS_P2;Temp;Humidity;BMP_temperature;BMP_pressure;BME280_temperature;BME280_humidity;BME280_pressure;Samples;Min_cycle;Max_cycle;Signal;HPM_P1;HPM_P2
2021/04/08 00:03:04;;;;;;;0.97;0.40;;;8.50;99.90;;;;;;20854786;28;20322;-80
2021/04/08 00:13:07;;;;;;;1.60;0.40;;;8.70;99.90;;;;;;20814342;28;20236;-78
2021/04/08 00:23:11;;;;;;;0.20;0.10;;;8.70;99.90;;;;;;20816273;28;20227;-80
2021/04/08 00:33:15;;;;;;;0.53;0.33;;;8.70;99.90;;;;;;20767659;28;20229;-81
2021/04/08 00:43:19;;;;;;;0.43;0.43;;;8.60;99.90;;;;;;20870040;28;20255;-78
2021/04/08 00:53:24;;;;;;;0.20;0.20;;;8.70;99.90;;;;;;20912056;28;20229;-80
2021/04/08 01:03:27;;;;;;;5.50;1.43;;;9.10;99.90;;;;;;20893654;28;20217;-78
2021/04/08 01:13:37;;;;;;;0.50;0.50;;;9.30;99.90;;;;;;20892492;28;20275;-78
2021/04/08 01:24:16;;;;;;;0.30;0.30;;;9.60;99.90;;;;;;20907751;28;20193;-81
2021/04/08 01:34:23;;;;;;;0.20;0.10;;;9.70;99.90;;;;;;20866280;28;20661;-81
2021/04/08 01:44:27;;;;;;;0.30;0.30;;;9.50;99.90;;;;;;20753998;28;20314;-81
2021/04/08 01:54:32;;;;;;;0.20;0.10;;;9.50;99.90;;;;;;20709214;28;20265;-83
2021/04/08 02:04:38;;;;;;;15.77;0.53;;;9.40;99.90;;;;;;20742723;28;20199;-82
2021/04/08 02:14:46;;;;;;;0.20;0.20;;;9.50;99.90;;;;;;20723975;28;20222;-82
2021/04/08 02:24:49;;;;;;;0.70;0.60;;;9.50;99.90;;;;;;20722493;28;20202;-80
2021/04/08 02:34:53;;;;;;;6.90;1.27;;;9.60;99.90;;;;;;20739401;28;20250;-80
2021/04/08 02:44:55;;;;;;;0.30;0.30;;;9.50;99.90;;;;;;20886059;28;20221;-81
2021/04/08 02:55:07;;;;;;;0.20;0.10;;;9.70;99.90;;;;;;20901781;28;20256;-80
2021/04/08 03:05:12;;;;;;;0.37;0.37;;;10.00;99.90;;;;;;20800538;28;20202;-77
2021/04/08 03:15:18;;;;;;;1.17;0.63;;;10.50;99.90;;;;;;20800144;28;20590;-78
2021/04/08 03:25:22;;;;;;;0.30;0.30;;;10.80;99.90;;;;;;20817100;28;20233;-78
2021/04/08 03:35:28;;;;;;;0.40;0.40;;;10.90;99.90;;;;;;20773242;28;20308;-77
2021/04/08 03:45:30;;;;;;;0.20;0.20;;;11.00;99.90;;;;;;20849646;28;20687;-81
2021/04/08 03:55:35;;;;;;;0.20;0.10;;;11.10;99.90;;;;;;20815018;28;20222;-81
2021/04/08 04:05:38;;;;;;;6.60;0.53;;;11.10;99.90;;;;;;20798271;28;20222;-80
2021/04/08 04:15:47;;;;;;;0.20;0.10;;;11.10;99.90;;;;;;20825384;28;20225;-86
2021/04/08 04:25:49;;;;;;;0.20;0.10;;;11.10;99.90;;;;;;20785739;28;20655;-84
2021/04/08 04:35:54;;;;;;;0.77;0.47;;;11.20;99.90;;;;;;20782826;28;20245;-80
2021/04/08 04:45:58;;;;;;;0.30;0.30;;;11.10;99.90;;;;;;20714916;28;20738;-81
2021/04/08 04:56:01;;;;;;;0.20;0.20;;;11.20;99.90;;;;;;20697157;28;20222;-78
2021/04/08 05:06:04;;;;;;;0.30;0.20;;;11.20;99.90;;;;;;20731039;28;20211;-84
2021/04/08 05:16:09;;;;;;;4.00;1.10;;;11.30;99.90;;;;;;20744399;28;20223;-80
2021/04/08 05:26:12;;;;;;;0.30;0.17;;;11.30;99.90;;;;;;20727161;28;20226;-76
2021/04/08 05:36:15;;;;;;;0.40;0.20;;;11.40;99.90;;;;;;20733547;28;20312;-84
2021/04/08 05:46:18;;;;;;;3.30;0.90;;;11.50;99.90;;;;;;20909554;28;20232;-84
2021/04/08 05:56:23;;;;;;;0.30;0.30;;;11.70;99.90;;;;;;20889274;28;20268;-80
2021/04/08 06:06:26;;;;;;;1.07;1.07;;;11.70;99.90;;;;;;20886670;28;20205;-83
2021/04/08 06:16:30;;;;;;;1.17;0.33;;;11.90;99.90;;;;;;20900799;28;20546;-81
2021/04/08 06:26:33;;;;;;;0.20;0.10;;;12.00;99.90;;;;;;20906667;28;20189;-82
2021/04/08 06:36:38;;;;;;;0.30;0.30;;;12.10;99.90;;;;;;20905599;28;20571;-80
2021/04/08 06:46:43;;;;;;;0.30;0.30;;;12.00;99.90;;;;;;20886628;28;20674;-79
2021/04/08 06:56:47;;;;;;;0.20;0.20;;;11.80;99.90;;;;;;20886047;28;20248;-80
2021/04/08 07:06:51;;;;;;;0.40;0.40;;;12.10;99.90;;;;;;20849658;28;20206;-84
2021/04/08 07:16:55;;;;;;;0.27;0.20;;;12.40;99.90;;;;;;20744966;28;20250;-88
2021/04/08 07:27:02;;;;;;;0.27;0.20;;;12.60;99.90;;;;;;20778031;28;20197;-79
2021/04/08 07:37:06;;;;;;;0.20;0.10;;;12.70;99.90;;;;;;20829303;28;20253;-83
2021/04/08 07:47:37;;;;;;;1.00;0.60;;;12.80;99.90;;;;;;20897668;28;20606;-81
2021/04/08 07:58:02;;;;;;;0.20;0.13;;;13.00;99.90;;;;;;20909206;28;20296;-85
2021/04/08 08:08:10;;;;;;;0.40;0.40;;;13.70;99.90;;;;;;20825161;28;20194;-75
2021/04/08 08:18:34;;;;;;;0.20;0.10;;;14.30;99.90;;;;;;20818230;28;20650;-80
2021/04/08 08:28:38;;;;;;;22.27;1.93;;;14.00;99.90;;;;;;20812839;28;20226;-85
2021/04/08 08:38:56;;;;;;;0.20;0.20;;;14.20;99.90;;;;;;20819963;28;20284;-78
2021/04/08 08:49:07;;;;;;;0.20;0.20;;;14.50;99.90;;;;;;20906089;28;20299;-80
2021/04/08 08:59:13;;;;;;;2.00;0.93;;;14.50;99.90;;;;;;20893971;28;20201;-77
2021/04/08 09:09:19;;;;;;;0.20;0.20;;;14.60;99.90;;;;;;20914518;28;20317;-80
2021/04/08 09:19:28;;;;;;;0.50;0.50;;;14.40;99.90;;;;;;20892228;28;20260;-83
2021/04/08 09:29:54;;;;;;;2.67;0.97;;;14.70;99.90;;;;;;20911315;28;20737;-81
2021/04/08 09:40:08;;;;;;;0.70;0.40;;;15.10;99.90;;;;;;20904170;28;20230;-79
2021/04/08 09:50:31;;;;;;;1.03;0.50;;;15.10;99.90;;;;;;20887112;28;20233;-80
2021/04/08 10:00:36;;;;;;;0.50;0.27;;;15.20;99.90;;;;;;20892299;28;20248;-78
2021/04/08 10:10:44;;;;;;;0.20;0.10;;;15.80;99.90;;;;;;20845588;28;20268;-76
2021/04/08 10:20:51;;;;;;;0.97;0.87;;;16.10;99.90;;;;;;20903930;28;20228;-80
2021/04/08 10:30:54;;;;;;;0.30;0.13;;;16.00;99.90;;;;;;20903778;28;20277;-73
2021/04/08 10:40:59;;;;;;;2.10;0.30;;;16.30;99.90;;;;;;20885998;28;20189;-76
2021/04/08 10:51:13;;;;;;;0.87;0.47;;;16.80;99.90;;;;;;20904331;28;20306;-72
2021/04/08 11:01:29;;;;;;;0.20;0.20;;;16.30;99.90;;;;;;20879268;28;20616;-73
2021/04/08 11:11:32;;;;;;;0.30;0.20;;;16.30;99.90;;;;;;20801486;28;20280;-81
2021/04/08 11:21:36;;;;;;;1.77;0.70;;;16.20;99.90;;;;;;20786470;28;20194;-74
2021/04/08 11:31:42;;;;;;;0.20;0.20;;;16.50;99.90;;;;;;20817004;28;20308;-75
2021/04/08 11:41:45;;;;;;;1.63;1.33;;;17.40;99.90;;;;;;20845606;28;20527;-80
2021/04/08 11:52:08;;;;;;;0.87;0.80;;;18.50;99.90;;;;;;20880644;28;20225;-77
2021/04/08 12:02:11;;;;;;;0.20;0.20;;;17.60;99.90;;;;;;20852838;28;20277;-75
2021/04/08 12:12:14;;;;;;;0.27;0.20;;;17.90;99.90;;;;;;20815713;28;20233;-74
2021/04/08 12:22:18;;;;;;;2.97;0.60;;;18.70;99.90;;;;;;20814818;28;20198;-74
2021/04/08 12:32:28;;;;;;;0.30;0.30;;;18.50;99.90;;;;;;20808519;28;20312;-78
2021/04/08 12:42:32;;;;;;;0.70;0.50;;;20.60;99.90;;;;;;20866956;28;20199;-78
2021/04/08 12:52:35;;;;;;;3.50;0.63;;;21.20;99.90;;;;;;20878295;28;20328;-80
2021/04/08 13:02:40;;;;;;;0.93;0.20;;;20.70;99.90;;;;;;20896175;28;20277;-80
2021/04/08 13:12:47;;;;;;;0.33;0.30;;;20.90;99.90;;;;;;20897105;28;20252;-80
2021/04/08 13:22:51;;;;;;;0.80;0.67;;;21.10;99.90;;;;;;20894987;28;20257;-72
2021/04/08 13:32:54;;;;;;;0.70;0.50;;;21.60;99.90;;;;;;20899231;28;20226;-82
2021/04/08 13:42:59;;;;;;;0.20;0.00;;;20.70;99.90;;;;;;20857218;28;20210;-81
2021/04/08 13:53:04;;;;;;;0.20;0.10;;;19.80;99.90;;;;;;20802531;28;20256;-80
2021/04/08 14:03:08;;;;;;;0.60;0.57;;;19.50;99.90;;;;;;20811080;28;20202;-73
2021/04/08 14:13:11;;;;;;;0.30;0.20;;;20.10;99.90;;;;;;20790222;28;20539;-76
2021/04/08 14:23:15;;;;;;;1.03;0.47;;;20.60;99.90;;;;;;20783784;28;20191;-76
2021/04/08 14:33:18;;;;;;;0.53;0.40;;;19.50;99.90;;;;;;20767519;28;20524;-74
2021/04/08 14:43:21;;;;;;;0.60;0.27;;;19.50;99.90;;;;;;20878510;28;20222;-77
2021/04/08 14:53:24;;;;;;;1.23;0.97;;;19.60;99.90;;;;;;20884689;28;20252;-78
2021/04/08 15:03:30;;;;;;;0.20;0.20;;;20.30;99.90;;;;;;20817349;28;20198;-72
2021/04/08 15:13:36;;;;;;;1.03;0.57;;;20.00;99.90;;;;;;20815063;28;20280;-76
2021/04/08 15:23:40;;;;;;;0.20;0.10;;;20.40;99.90;;;;;;20799214;28;20196;-79
2021/04/08 15:33:43;;;;;;;1.07;0.50;;;19.90;99.90;;;;;;20813532;28;20229;-77
2021/04/08 15:43:47;;;;;;;0.47;0.17;;;19.90;99.90;;;;;;20817011;28;20341;-81
2021/04/08 15:53:50;;;;;;;0.77;0.53;;;19.50;99.90;;;;;;20777582;28;20230;-77
2021/04/08 16:03:53;;;;;;;1.20;0.63;;;17.70;99.90;;;;;;20844440;28;20201;-76
2021/04/08 16:13:56;;;;;;;0.23;0.23;;;16.40;99.90;;;;;;20892959;28;20635;-77
2021/04/08 16:24:00;;;;;;;0.37;0.37;;;16.20;99.90;;;;;;20867343;28;20225;-74
2021/04/08 16:34:03;;;;;;;0.30;0.30;;;15.70;99.90;;;;;;20809302;28;20213;-77
2021/04/08 16:44:07;;;;;;;0.20;0.10;;;15.80;99.90;;;;;;20880280;28;20225;-78
2021/04/08 16:54:10;;;;;;;0.20;0.10;;;15.50;99.90;;;;;;20893823;28;20229;-76
2021/04/08 17:04:14;;;;;;;0.27;0.23;;;15.20;99.90;;;;;;20813179;28;20199;-74
2021/04/08 17:14:17;;;;;;;0.50;0.20;;;15.00;99.90;;;;;;20786828;28;20284;-77
2021/04/08 17:24:20;;;;;;;3.50;0.20;;;15.60;99.90;;;;;;20792569;28;20428;-79
2021/04/08 17:34:23;;;;;;;0.20;0.10;;;15.50;99.90;;;;;;20822178;28;20249;-72
2021/04/08 17:44:27;;;;;;;0.40;0.33;;;15.20;99.90;;;;;;20841047;28;20529;-77
2021/04/08 17:54:30;;;;;;;0.20;0.10;;;14.50;99.90;;;;;;20825972;28;20230;-79
2021/04/08 18:04:34;;;;;;;0.20;0.10;;;14.00;99.90;;;;;;20830099;28;20562;-77
2021/04/08 18:25:40;;;;;;;0.30;0.13;;;13.50;99.90;;;;;;20694860;23;20232;-78
2021/04/08 18:35:59;;;;;;;0.20;0.10;;;13.30;99.90;;;;;;20480183;28;20224;-76
2021/04/08 18:46:06;;;;;;;3.83;0.67;;;13.20;99.90;;;;;;20650472;23;20304;-85
2021/04/08 18:56:10;;;;;;;0.50;0.50;;;13.10;99.90;;;;;;20654688;28;20231;-79
2021/04/08 19:06:13;;;;;;;0.20;0.10;;;13.00;99.90;;;;;;20663280;23;20325;-81
2021/04/08 19:16:52;;;;;;;0.20;0.10;;;13.00;99.90;;;;;;20516769;28;20227;-77
2021/04/08 19:27:10;;;;;;;2.50;0.60;;;12.90;99.90;;;;;;20636642;28;20199;-80
2021/04/08 19:37:14;;;;;;;0.20;0.10;;;12.80;99.90;;;;;;20644373;28;20230;-76
2021/04/08 19:47:17;;;;;;;2.40;1.17;;;12.80;99.90;;;;;;20749696;23;20239;-75
2021/04/08 19:58:18;;;;;;;7.00;0.80;;;12.80;99.90;;;;;;20638296;23;20246;-81
2021/04/08 20:08:42;;;;;;;0.30;0.23;;;12.80;99.90;;;;;;20625333;23;20282;-77
2021/04/08 20:18:44;;;;;;;0.30;0.30;;;12.60;99.90;;;;;;20648110;28;20258;-76
2021/04/08 20:28:52;;;;;;;0.37;0.37;;;12.60;99.90;;;;;;20646414;28;20226;-77
2021/04/08 20:38:55;;;;;;;7.80;1.47;;;12.60;99.90;;;;;;20673754;28;20762;-77
2021/04/08 20:48:59;;;;;;;1.37;1.27;;;12.40;99.90;;;;;;20691540;28;20219;-77
2021/04/08 20:59:02;;;;;;;1.23;0.87;;;12.40;99.90;;;;;;20643512;28;20262;-76
2021/04/08 21:09:06;;;;;;;0.30;0.30;;;11.80;99.90;;;;;;20661537;28;20710;-78
2021/04/08 21:19:16;;;;;;;0.97;0.80;;;11.10;99.90;;;;;;20645682;28;20231;-78
2021/04/08 21:41:08;;;;;;;0.20;0.10;;;10.60;99.90;;;;;;20108871;29;20682;-78
2021/04/08 21:51:14;;;;;;;0.20;0.20;;;10.50;99.90;;;;;;20230857;29;20231;-78
2021/04/08 22:25:02;;;;;;;0.20;0.10;;;10.00;99.90;;;;;;20579519;23;20331;-77
2021/04/08 22:35:06;;;;;;;0.20;0.10;;;9.80;99.90;;;;;;20674959;28;20645;-75
2021/04/08 22:45:13;;;;;;;0.30;0.30;;;9.70;99.90;;;;;;20739429;28;20191;-76
2021/04/08 22:55:16;;;;;;;0.33;0.30;;;9.60;99.90;;;;;;20738101;28;20230;-77
2021/04/08 23:05:40;;;;;;;0.20;0.20;;;9.50;99.90;;;;;;20737370;28;20702;-77
2021/04/08 23:15:43;;;;;;;0.20;0.10;;;9.30;99.90;;;;;;20656537;28;20219;-74
2021/04/08 23:25:56;;;;;;;0.20;0.10;;;9.40;99.90;;;;;;20655644;28;20726;-75
2021/04/08 23:36:00;;;;;;;0.20;0.10;;;9.20;99.90;;;;;;20690172;28;20757;-75
2021/04/08 23:46:03;;;;;;;0.20;0.10;;;9.70;99.90;;;;;;20735065;28;20682;-75
2021/04/08 23:56:06;;;;;;;0.20;0.00;;;9.80;99.90;;;;;;20716680;28;20227;-75
